sensor_id;sensor_type;location;lat;lon;timestamp;P1;durP1;ratioP1;P2;durP2;ratioP2
6775;SDS011;3425;51.376;5.222;2023-04-19T00:01:31;1.17;;;1.08;;
6775;SDS011;3425;51.376;5.222;2023-04-19T00:03:58;1.50;;;1.40;;
6775;SDS011;3425;51.376;5.222;2023-04-19T00:06:26;2.38;;;1.33;;
6775;SDS011;3425;51.376;5.222;2023-04-19T00:08:55;1.58;;;1.48;;
6775;SDS011;3425;51.376;5.222;2023-04-19T00:11:23;13.45;;;1.35;;
6775;SDS011;3425;51.376;5.222;2023-04-19T00:13:50;1.38;;;1.33;;
6775;SDS011;3425;51.376;5.222;2023-04-19T00:16:17;2.63;;;0.88;;
6775;SDS011;3425;51.376;5.222;2023-04-19T00:18:44;2.80;;;2.20;;
6775;SDS011;3425;51.376;5.222;2023-04-19T00:21:12;3.60;;;1.23;;
6775;SDS011;3425;51.376;5.222;2023-04-19T00:23:39;5.35;;;1.73;;
6775;SDS011;3425;51.376;5.222;2023-04-19T00:26:06;5.13;;;2.00;;
6775;SDS011;3425;51.376;5.222;2023-04-19T00:28:33;4.93;;;1.48;;
6775;SDS011;3425;51.376;5.222;2023-04-19T00:31:01;2.10;;;1.95;;
6775;SDS011;3425;51.376;5.222;2023-04-19T00:33:28;1.00;;;1.00;;
6775;SDS011;3425;51.376;5.222;2023-04-19T00:35:55;2.72;;;2.33;;
6775;SDS011;3425;51.376;5.222;2023-04-19T00:38:22;4.03;;;1.90;;
6775;SDS011;3425;51.376;5.222;2023-04-19T00:40:49;1.48;;;1.38;;
6775;SDS011;3425;51.376;5.222;2023-04-19T00:43:17;24.13;;;1.08;;
6775;SDS011;3425;51.376;5.222;2023-04-19T00:45:44;2.72;;;1.48;;
6775;SDS011;3425;51.376;5.222;2023-04-19T00:48:12;0.80;;;0.80;;
6775;SDS011;3425;51.376;5.222;2023-04-19T00:50:40;3.63;;;1.80;;
6775;SDS011;3425;51.376;5.222;2023-04-19T00:53:07;1.85;;;1.00;;
6775;SDS011;3425;51.376;5.222;2023-04-19T00:55:35;1.25;;;0.90;;
6775;SDS011;3425;51.376;5.222;2023-04-19T00:58:07;2.25;;;1.80;;
6775;SDS011;3425;51.376;5.222;2023-04-19T01:00:34;3.38;;;2.10;;
6775;SDS011;3425;51.376;5.222;2023-04-19T01:03:02;1.58;;;1.48;;
6775;SDS011;3425;51.376;5.222;2023-04-19T01:05:29;0.88;;;0.85;;
6775;SDS011;3425;51.376;5.222;2023-04-19T01:07:56;1.95;;;1.60;;
6775;SDS011;3425;51.376;5.222;2023-04-19T01:10:24;2.55;;;1.75;;
6775;SDS011;3425;51.376;5.222;2023-04-19T01:12:51;1.10;;;1.00;;
6775;SDS011;3425;51.376;5.222;2023-04-19T01:15:18;1.08;;;0.93;;
6775;SDS011;3425;51.376;5.222;2023-04-19T01:17:46;1.73;;;1.45;;
6775;SDS011;3425;51.376;5.222;2023-04-19T01:20:13;2.38;;;2.08;;
6775;SDS011;3425;51.376;5.222;2023-04-19T01:22:40;2.72;;;1.17;;
6775;SDS011;3425;51.376;5.222;2023-04-19T01:25:07;2.38;;;1.60;;
6775;SDS011;3425;51.376;5.222;2023-04-19T01:27:35;2.50;;;1.27;;
6775;SDS011;3425;51.376;5.222;2023-04-19T01:30:02;1.65;;;1.52;;
6775;SDS011;3425;51.376;5.222;2023-04-19T01:32:30;1.42;;;1.33;;
6775;SDS011;3425;51.376;5.222;2023-04-19T01:34:57;3.72;;;1.17;;
6775;SDS011;3425;51.376;5.222;2023-04-19T01:37:24;2.40;;;1.83;;
6775;SDS011;3425;51.376;5.222;2023-04-19T01:39:51;0.70;;;0.70;;
6775;SDS011;3425;51.376;5.222;2023-04-19T01:42:18;2.13;;;1.33;;
6775;SDS011;3425;51.376;5.222;2023-04-19T01:44:45;1.48;;;1.38;;
6775;SDS011;3425;51.376;5.222;2023-04-19T01:47:13;1.98;;;1.88;;
6775;SDS011;3425;51.376;5.222;2023-04-19T01:49:40;3.13;;;1.50;;
6775;SDS011;3425;51.376;5.222;2023-04-19T01:52:07;7.18;;;1.98;;
6775;SDS011;3425;51.376;5.222;2023-04-19T01:54:34;6.07;;;1.70;;
6775;SDS011;3425;51.376;5.222;2023-04-19T01:57:01;7.68;;;2.30;;
6775;SDS011;3425;51.376;5.222;2023-04-19T01:59:28;1.50;;;1.40;;
6775;SDS011;3425;51.376;5.222;2023-04-19T02:01:56;1.92;;;1.83;;
6775;SDS011;3425;51.376;5.222;2023-04-19T02:04:23;5.03;;;2.72;;
6775;SDS011;3425;51.376;5.222;2023-04-19T02:06:50;3.53;;;2.03;;
6775;SDS011;3425;51.376;5.222;2023-04-19T02:09:17;6.05;;;2.53;;
6775;SDS011;3425;51.376;5.222;2023-04-19T02:11:45;6.57;;;1.77;;
6775;SDS011;3425;51.376;5.222;2023-04-19T02:14:12;0.90;;;0.90;;
6775;SDS011;3425;51.376;5.222;2023-04-19T02:16:39;1.48;;;1.38;;
6775;SDS011;3425;51.376;5.222;2023-04-19T02:19:07;3.55;;;1.83;;
6775;SDS011;3425;51.376;5.222;2023-04-19T02:21:34;1.10;;;1.02;;
6775;SDS011;3425;51.376;5.222;2023-04-19T02:24:01;2.50;;;1.52;;
6775;SDS011;3425;51.376;5.222;2023-04-19T02:26:28;2.17;;;1.35;;
6775;SDS011;3425;51.376;5.222;2023-04-19T02:28:55;4.60;;;2.10;;
6775;SDS011;3425;51.376;5.222;2023-04-19T02:31:22;1.42;;;1.20;;
6775;SDS011;3425;51.376;5.222;2023-04-19T02:33:50;1.42;;;1.00;;
6775;SDS011;3425;51.376;5.222;2023-04-19T02:36:17;5.95;;;1.70;;
6775;SDS011;3425;51.376;5.222;2023-04-19T02:38:44;1.65;;;1.35;;
6775;SDS011;3425;51.376;5.222;2023-04-19T02:41:11;1.88;;;1.73;;
6775;SDS011;3425;51.376;5.222;2023-04-19T02:43:38;5.35;;;1.00;;
6775;SDS011;3425;51.376;5.222;2023-04-19T02:46:05;0.88;;;0.88;;
6775;SDS011;3425;51.376;5.222;2023-04-19T02:48:33;1.75;;;0.90;;
6775;SDS011;3425;51.376;5.222;2023-04-19T02:51:00;2.00;;;1.35;;
6775;SDS011;3425;51.376;5.222;2023-04-19T02:53:27;1.38;;;1.05;;
6775;SDS011;3425;51.376;5.222;2023-04-19T02:55:54;4.13;;;1.42;;
6775;SDS011;3425;51.376;5.222;2023-04-19T02:58:22;0.93;;;0.93;;
6775;SDS011;3425;51.376;5.222;2023-04-19T03:00:49;2.97;;;1.85;;
6775;SDS011;3425;51.376;5.222;2023-04-19T03:03:16;3.85;;;2.45;;
6775;SDS011;3425;51.376;5.222;2023-04-19T03:05:43;7.53;;;1.63;;
6775;SDS011;3425;51.376;5.222;2023-04-19T03:08:10;3.47;;;1.80;;
6775;SDS011;3425;51.376;5.222;2023-04-19T03:10:38;2.08;;;0.90;;
6775;SDS011;3425;51.376;5.222;2023-04-19T03:13:05;0.80;;;0.80;;
6775;SDS011;3425;51.376;5.222;2023-04-19T03:15:32;4.72;;;2.35;;
6775;SDS011;3425;51.376;5.222;2023-04-19T03:17:59;5.00;;;1.85;;
6775;SDS011;3425;51.376;5.222;2023-04-19T03:20:26;3.00;;;1.85;;
6775;SDS011;3425;51.376;5.222;2023-04-19T03:22:53;1.48;;;1.25;;
6775;SDS011;3425;51.376;5.222;2023-04-19T03:25:21;1.58;;;1.23;;
6775;SDS011;3425;51.376;5.222;2023-04-19T03:27:48;2.13;;;1.48;;
6775;SDS011;3425;51.376;5.222;2023-04-19T03:30:16;2.10;;;1.25;;
6775;SDS011;3425;51.376;5.222;2023-04-19T03:32:44;2.25;;;0.65;;
6775;SDS011;3425;51.376;5.222;2023-04-19T03:35:12;4.50;;;1.33;;
6775;SDS011;3425;51.376;5.222;2023-04-19T03:37:39;1.05;;;1.05;;
6775;SDS011;3425;51.376;5.222;2023-04-19T03:40:07;1.02;;;0.93;;
6775;SDS011;3425;51.376;5.222;2023-04-19T03:42:34;7.95;;;1.85;;
6775;SDS011;3425;51.376;5.222;2023-04-19T03:45:01;3.42;;;2.05;;
6775;SDS011;3425;51.376;5.222;2023-04-19T03:47:28;2.58;;;1.13;;
6775;SDS011;3425;51.376;5.222;2023-04-19T03:49:56;1.27;;;1.00;;
6775;SDS011;3425;51.376;5.222;2023-04-19T03:52:23;4.90;;;1.85;;
6775;SDS011;3425;51.376;5.222;2023-04-19T03:54:51;0.88;;;0.77;;
6775;SDS011;3425;51.376;5.222;2023-04-19T03:57:18;4.03;;;1.95;;
6775;SDS011;3425;51.376;5.222;2023-04-19T03:59:45;1.48;;;1.38;;
6775;SDS011;3425;51.376;5.222;2023-04-19T04:02:12;3.30;;;2.00;;
6775;SDS011;3425;51.376;5.222;2023-04-19T04:04:40;1.10;;;1.00;;
6775;SDS011;3425;51.376;5.222;2023-04-19T04:07:07;1.75;;;1.40;;
6775;SDS011;3425;51.376;5.222;2023-04-19T04:09:35;0.70;;;0.70;;
6775;SDS011;3425;51.376;5.222;2023-04-19T04:12:03;2.72;;;2.47;;
6775;SDS011;3425;51.376;5.222;2023-04-19T04:14:30;5.85;;;1.40;;
6775;SDS011;3425;51.376;5.222;2023-04-19T04:16:57;4.22;;;1.05;;
6775;SDS011;3425;51.376;5.222;2023-04-19T04:19:24;1.35;;;1.15;;
6775;SDS011;3425;51.376;5.222;2023-04-19T04:21:52;2.90;;;0.75;;
6775;SDS011;3425;51.376;5.222;2023-04-19T04:24:19;1.63;;;1.52;;
6775;SDS011;3425;51.376;5.222;2023-04-19T04:26:47;1.30;;;1.20;;
6775;SDS011;3425;51.376;5.222;2023-04-19T04:29:17;0.88;;;0.75;;
6775;SDS011;3425;51.376;5.222;2023-04-19T04:31:45;1.00;;;0.80;;
6775;SDS011;3425;51.376;5.222;2023-04-19T04:34:12;4.93;;;2.08;;
6775;SDS011;3425;51.376;5.222;2023-04-19T04:36:39;2.97;;;1.75;;
6775;SDS011;3425;51.376;5.222;2023-04-19T04:39:07;4.20;;;1.02;;
6775;SDS011;3425;51.376;5.222;2023-04-19T04:41:37;1.60;;;1.05;;
6775;SDS011;3425;51.376;5.222;2023-04-19T04:44:07;1.35;;;1.30;;
6775;SDS011;3425;51.376;5.222;2023-04-19T04:46:38;1.50;;;1.50;;
6775;SDS011;3425;51.376;5.222;2023-04-19T04:49:05;0.85;;;0.75;;
6775;SDS011;3425;51.376;5.222;2023-04-19T04:51:33;0.70;;;0.70;;
6775;SDS011;3425;51.376;5.222;2023-04-19T04:54:00;2.67;;;0.93;;
6775;SDS011;3425;51.376;5.222;2023-04-19T04:56:27;1.55;;;1.25;;
6775;SDS011;3425;51.376;5.222;2023-04-19T04:58:56;1.15;;;1.13;;
6775;SDS011;3425;51.376;5.222;2023-04-19T05:01:23;2.33;;;1.67;;
6775;SDS011;3425;51.376;5.222;2023-04-19T05:03:50;0.63;;;0.57;;
6775;SDS011;3425;51.376;5.222;2023-04-19T05:06:18;0.90;;;0.82;;
6775;SDS011;3425;51.376;5.222;2023-04-19T05:08:45;2.58;;;1.63;;
6775;SDS011;3425;51.376;5.222;2023-04-19T05:11:12;1.10;;;0.75;;
6775;SDS011;3425;51.376;5.222;2023-04-19T05:13:40;1.65;;;1.52;;
6775;SDS011;3425;51.376;5.222;2023-04-19T05:16:07;2.67;;;1.42;;
6775;SDS011;3425;51.376;5.222;2023-04-19T05:18:34;1.38;;;1.23;;
6775;SDS011;3425;51.376;5.222;2023-04-19T05:21:01;1.25;;;1.23;;
6775;SDS011;3425;51.376;5.222;2023-04-19T05:23:28;2.25;;;1.33;;
6775;SDS011;3425;51.376;5.222;2023-04-19T05:25:56;0.77;;;0.75;;
6775;SDS011;3425;51.376;5.222;2023-04-19T05:28:23;0.73;;;0.57;;
6775;SDS011;3425;51.376;5.222;2023-04-19T05:30:53;2.20;;;1.75;;
6775;SDS011;3425;51.376;5.222;2023-04-19T05:33:20;3.70;;;1.77;;
6775;SDS011;3425;51.376;5.222;2023-04-19T05:35:47;5.10;;;2.42;;
6775;SDS011;3425;51.376;5.222;2023-04-19T05:38:14;1.45;;;0.85;;
6775;SDS011;3425;51.376;5.222;2023-04-19T05:40:43;1.38;;;1.27;;
6775;SDS011;3425;51.376;5.222;2023-04-19T05:43:11;1.05;;;0.85;;
6775;SDS011;3425;51.376;5.222;2023-04-19T05:45:38;1.35;;;1.17;;
6775;SDS011;3425;51.376;5.222;2023-04-19T05:48:05;0.88;;;0.88;;
6775;SDS011;3425;51.376;5.222;2023-04-19T05:50:32;1.92;;;1.75;;
6775;SDS011;3425;51.376;5.222;2023-04-19T05:53:01;3.63;;;1.33;;
6775;SDS011;3425;51.376;5.222;2023-04-19T05:55:28;1.70;;;0.98;;
6775;SDS011;3425;51.376;5.222;2023-04-19T05:57:57;1.83;;;0.82;;
6775;SDS011;3425;51.376;5.222;2023-04-19T06:00:24;0.73;;;0.73;;
6775;SDS011;3425;51.376;5.222;2023-04-19T06:02:52;0.45;;;0.45;;
6775;SDS011;3425;51.376;5.222;2023-04-19T06:05:20;1.65;;;0.65;;
6775;SDS011;3425;51.376;5.222;2023-04-19T06:07:48;1.00;;;0.95;;
6775;SDS011;3425;51.376;5.222;2023-04-19T06:10:24;0.65;;;0.65;;
6775;SDS011;3425;51.376;5.222;2023-04-19T06:13:02;1.00;;;0.65;;
6775;SDS011;3425;51.376;5.222;2023-04-19T06:15:30;2.40;;;0.93;;
6775;SDS011;3425;51.376;5.222;2023-04-19T06:17:57;0.55;;;0.55;;
6775;SDS011;3425;51.376;5.222;2023-04-19T06:20:25;0.30;;;0.30;;
6775;SDS011;3425;51.376;5.222;2023-04-19T06:22:52;0.50;;;0.50;;
6775;SDS011;3425;51.376;5.222;2023-04-19T06:25:19;0.47;;;0.47;;
6775;SDS011;3425;51.376;5.222;2023-04-19T06:27:46;0.30;;;0.30;;
6775;SDS011;3425;51.376;5.222;2023-04-19T06:30:13;4.47;;;0.80;;
6775;SDS011;3425;51.376;5.222;2023-04-19T06:32:41;0.63;;;0.57;;
6775;SDS011;3425;51.376;5.222;2023-04-19T06:35:08;0.88;;;0.88;;
6775;SDS011;3425;51.376;5.222;2023-04-19T06:37:35;0.20;;;0.20;;
6775;SDS011;3425;51.376;5.222;2023-04-19T06:40:02;1.10;;;0.90;;
6775;SDS011;3425;51.376;5.222;2023-04-19T06:42:32;0.22;;;0.22;;
6775;SDS011;3425;51.376;5.222;2023-04-19T06:44:59;0.90;;;0.73;;
6775;SDS011;3425;51.376;5.222;2023-04-19T06:47:27;0.13;;;0.13;;
6775;SDS011;3425;51.376;5.222;2023-04-19T06:49:55;0.82;;;0.50;;
6775;SDS011;3425;51.376;5.222;2023-04-19T06:52:25;4.97;;;2.40;;
6775;SDS011;3425;51.376;5.222;2023-04-19T06:54:52;0.70;;;0.70;;
6775;SDS011;3425;51.376;5.222;2023-04-19T06:57:19;0.40;;;0.40;;
6775;SDS011;3425;51.376;5.222;2023-04-19T06:59:46;1.23;;;0.30;;
6775;SDS011;3425;51.376;5.222;2023-04-19T07:02:14;1.08;;;0.65;;
6775;SDS011;3425;51.376;5.222;2023-04-19T07:04:43;0.40;;;0.17;;
6775;SDS011;3425;51.376;5.222;2023-04-19T07:07:10;1.30;;;0.75;;
6775;SDS011;3425;51.376;5.222;2023-04-19T07:09:37;0.55;;;0.55;;
6775;SDS011;3425;51.376;5.222;2023-04-19T07:12:05;1.27;;;0.75;;
6775;SDS011;3425;51.376;5.222;2023-04-19T07:14:32;0.40;;;0.40;;
6775;SDS011;3425;51.376;5.222;2023-04-19T07:16:59;7.60;;;0.95;;
6775;SDS011;3425;51.376;5.222;2023-04-19T07:19:26;0.50;;;0.50;;
6775;SDS011;3425;51.376;5.222;2023-04-19T07:21:54;0.75;;;0.52;;
6775;SDS011;3425;51.376;5.222;2023-04-19T07:24:21;0.60;;;0.60;;
6775;SDS011;3425;51.376;5.222;2023-04-19T07:26:48;1.50;;;0.95;;
6775;SDS011;3425;51.376;5.222;2023-04-19T07:29:15;1.00;;;0.70;;
6775;SDS011;3425;51.376;5.222;2023-04-19T07:31:44;0.35;;;0.35;;
6775;SDS011;3425;51.376;5.222;2023-04-19T07:34:11;0.57;;;0.57;;
6775;SDS011;3425;51.376;5.222;2023-04-19T07:36:38;0.40;;;0.40;;
6775;SDS011;3425;51.376;5.222;2023-04-19T07:39:06;3.50;;;1.23;;
6775;SDS011;3425;51.376;5.222;2023-04-19T07:41:33;0.25;;;0.25;;
6775;SDS011;3425;51.376;5.222;2023-04-19T07:44:01;1.77;;;0.32;;
6775;SDS011;3425;51.376;5.222;2023-04-19T07:46:28;0.55;;;0.52;;
6775;SDS011;3425;51.376;5.222;2023-04-19T07:48:56;0.80;;;0.80;;
6775;SDS011;3425;51.376;5.222;2023-04-19T07:51:23;0.50;;;0.50;;
6775;SDS011;3425;51.376;5.222;2023-04-19T07:53:50;7.38;;;1.20;;
6775;SDS011;3425;51.376;5.222;2023-04-19T07:56:17;0.77;;;0.52;;
6775;SDS011;3425;51.376;5.222;2023-04-19T07:58:45;0.55;;;0.55;;
6775;SDS011;3425;51.376;5.222;2023-04-19T08:01:29;3.25;;;1.50;;
6775;SDS011;3425;51.376;5.222;2023-04-19T08:03:58;0.55;;;0.35;;
6775;SDS011;3425;51.376;5.222;2023-04-19T08:06:26;1.85;;;0.95;;
6775;SDS011;3425;51.376;5.222;2023-04-19T08:08:54;1.92;;;0.70;;
6775;SDS011;3425;51.376;5.222;2023-04-19T08:11:22;0.95;;;0.73;;
6775;SDS011;3425;51.376;5.222;2023-04-19T08:13:50;0.25;;;0.25;;
6775;SDS011;3425;51.376;5.222;2023-04-19T08:16:36;0.32;;;0.32;;
6775;SDS011;3425;51.376;5.222;2023-04-19T08:19:07;1.35;;;0.85;;
6775;SDS011;3425;51.376;5.222;2023-04-19T08:21:34;0.40;;;0.40;;
6775;SDS011;3425;51.376;5.222;2023-04-19T08:24:06;0.45;;;0.40;;
6775;SDS011;3425;51.376;5.222;2023-04-19T08:26:33;0.20;;;0.20;;
6775;SDS011;3425;51.376;5.222;2023-04-19T08:29:00;1.08;;;0.43;;
6775;SDS011;3425;51.376;5.222;2023-04-19T08:31:28;1.45;;;0.77;;
6775;SDS011;3425;51.376;5.222;2023-04-19T08:33:55;0.43;;;0.43;;
6775;SDS011;3425;51.376;5.222;2023-04-19T08:36:23;0.40;;;0.40;;
6775;SDS011;3425;51.376;5.222;2023-04-19T08:39:04;6.32;;;1.75;;
6775;SDS011;3425;51.376;5.222;2023-04-19T08:41:43;0.65;;;0.63;;
6775;SDS011;3425;51.376;5.222;2023-04-19T08:44:15;0.47;;;0.28;;
6775;SDS011;3425;51.376;5.222;2023-04-19T08:47:00;0.45;;;0.45;;
6775;SDS011;3425;51.376;5.222;2023-04-19T08:49:27;0.43;;;0.17;;
6775;SDS011;3425;51.376;5.222;2023-04-19T08:51:57;0.20;;;0.20;;
6775;SDS011;3425;51.376;5.222;2023-04-19T08:54:25;0.70;;;0.60;;
6775;SDS011;3425;51.376;5.222;2023-04-19T08:56:55;0.52;;;0.52;;
6775;SDS011;3425;51.376;5.222;2023-04-19T08:59:22;0.40;;;0.35;;
6775;SDS011;3425;51.376;5.222;2023-04-19T09:01:49;0.55;;;0.55;;
6775;SDS011;3425;51.376;5.222;2023-04-19T09:04:17;1.45;;;0.50;;
6775;SDS011;3425;51.376;5.222;2023-04-19T09:07:02;1.13;;;1.00;;
6775;SDS011;3425;51.376;5.222;2023-04-19T09:09:29;0.50;;;0.50;;
6775;SDS011;3425;51.376;5.222;2023-04-19T09:11:59;0.50;;;0.50;;
6775;SDS011;3425;51.376;5.222;2023-04-19T09:14:28;0.77;;;0.60;;
6775;SDS011;3425;51.376;5.222;2023-04-19T09:17:15;0.70;;;0.20;;
6775;SDS011;3425;51.376;5.222;2023-04-19T09:19:46;0.20;;;0.20;;
6775;SDS011;3425;51.376;5.222;2023-04-19T09:22:13;1.10;;;0.32;;
6775;SDS011;3425;51.376;5.222;2023-04-19T09:24:40;0.30;;;0.30;;
6775;SDS011;3425;51.376;5.222;2023-04-19T09:27:11;0.25;;;0.25;;
6775;SDS011;3425;51.376;5.222;2023-04-19T09:29:38;0.00;;;0.00;;
6775;SDS011;3425;51.376;5.222;2023-04-19T09:32:05;0.75;;;0.50;;
6775;SDS011;3425;51.376;5.222;2023-04-19T09:34:32;0.32;;;0.32;;
6775;SDS011;3425;51.376;5.222;2023-04-19T09:37:12;0.63;;;0.52;;
6775;SDS011;3425;51.376;5.222;2023-04-19T09:39:57;0.40;;;0.40;;
6775;SDS011;3425;51.376;5.222;2023-04-19T09:42:58;0.30;;;0.30;;
6775;SDS011;3425;51.376;5.222;2023-04-19T09:45:21;0.15;;;0.15;;
6775;SDS011;3425;51.376;5.222;2023-04-19T09:48:01;0.65;;;0.38;;
6775;SDS011;3425;51.376;5.222;2023-04-19T09:50:29;0.20;;;0.20;;
6775;SDS011;3425;51.376;5.222;2023-04-19T09:52:58;0.30;;;0.30;;
6775;SDS011;3425;51.376;5.222;2023-04-19T09:55:26;0.13;;;0.13;;
6775;SDS011;3425;51.376;5.222;2023-04-19T09:57:58;1.00;;;0.70;;
6775;SDS011;3425;51.376;5.222;2023-04-19T10:00:25;0.98;;;0.85;;
6775;SDS011;3425;51.376;5.222;2023-04-19T10:03:01;3.30;;;1.75;;
6775;SDS011;3425;51.376;5.222;2023-04-19T10:05:29;0.55;;;0.50;;
6775;SDS011;3425;51.376;5.222;2023-04-19T10:07:57;0.45;;;0.40;;
6775;SDS011;3425;51.376;5.222;2023-04-19T10:10:28;2.10;;;1.05;;
6775;SDS011;3425;51.376;5.222;2023-04-19T10:12:59;2.20;;;1.00;;
6775;SDS011;3425;51.376;5.222;2023-04-19T10:15:30;0.10;;;0.10;;
6775;SDS011;3425;51.376;5.222;2023-04-19T10:18:16;0.40;;;0.40;;
6775;SDS011;3425;51.376;5.222;2023-04-19T10:20:49;0.22;;;0.22;;
6775;SDS011;3425;51.376;5.222;2023-04-19T10:23:18;0.30;;;0.30;;
6775;SDS011;3425;51.376;5.222;2023-04-19T10:25:46;0.20;;;0.20;;
6775;SDS011;3425;51.376;5.222;2023-04-19T10:28:16;6.75;;;0.55;;
6775;SDS011;3425;51.376;5.222;2023-04-19T10:30:53;0.00;;;0.00;;
6775;SDS011;3425;51.376;5.222;2023-04-19T10:33:25;2.45;;;0.85;;
6775;SDS011;3425;51.376;5.222;2023-04-19T10:35:56;1.08;;;0.15;;
6775;SDS011;3425;51.376;5.222;2023-04-19T10:38:39;0.40;;;0.40;;
6775;SDS011;3425;51.376;5.222;2023-04-19T10:41:08;0.68;;;0.68;;
6775;SDS011;3425;51.376;5.222;2023-04-19T10:43:45;0.20;;;0.20;;
6775;SDS011;3425;51.376;5.222;2023-04-19T10:46:14;0.70;;;0.35;;
6775;SDS011;3425;51.376;5.222;2023-04-19T10:51:37;0.20;;;0.20;;
6775;SDS011;3425;51.376;5.222;2023-04-19T10:54:05;0.20;;;0.20;;
6775;SDS011;3425;51.376;5.222;2023-04-19T11:01:31;0.15;;;0.10;;
6775;SDS011;3425;51.376;5.222;2023-04-19T11:04:14;0.55;;;0.28;;
6775;SDS011;3425;51.376;5.222;2023-04-19T11:07:24;5.22;;;1.05;;
6775;SDS011;3425;51.376;5.222;2023-04-19T11:09:36;0.55;;;0.30;;
6775;SDS011;3425;51.376;5.222;2023-04-19T11:12:11;1.08;;;0.82;;
6775;SDS011;3425;51.376;5.222;2023-04-19T11:17:18;0.00;;;0.00;;
6775;SDS011;3425;51.376;5.222;2023-04-19T11:20:01;1.40;;;0.57;;
6775;SDS011;3425;51.376;5.222;2023-04-19T11:22:32;0.13;;;0.13;;
6775;SDS011;3425;51.376;5.222;2023-04-19T11:25:15;0.10;;;0.10;;
6775;SDS011;3425;51.376;5.222;2023-04-19T11:27:46;0.30;;;0.20;;
6775;SDS011;3425;51.376;5.222;2023-04-19T11:30:14;0.25;;;0.25;;
6775;SDS011;3425;51.376;5.222;2023-04-19T11:35:19;0.10;;;0.10;;
6775;SDS011;3425;51.376;5.222;2023-04-19T11:37:46;0.20;;;0.10;;
6775;SDS011;3425;51.376;5.222;2023-04-19T11:40:14;4.55;;;0.73;;
6775;SDS011;3425;51.376;5.222;2023-04-19T11:42:42;0.47;;;0.35;;
6775;SDS011;3425;51.376;5.222;2023-04-19T11:45:10;0.10;;;0.10;;
6775;SDS011;3425;51.376;5.222;2023-04-19T11:47:53;0.00;;;0.00;;
6775;SDS011;3425;51.376;5.222;2023-04-19T11:52:58;0.00;;;0.00;;
6775;SDS011;3425;51.376;5.222;2023-04-19T11:55:25;0.10;;;0.10;;
6775;SDS011;3425;51.376;5.222;2023-04-19T11:57:52;0.00;;;0.00;;
6775;SDS011;3425;51.376;5.222;2023-04-19T12:00:25;0.00;;;0.00;;
6775;SDS011;3425;51.376;5.222;2023-04-19T12:02:53;0.30;;;0.30;;
6775;SDS011;3425;51.376;5.222;2023-04-19T12:05:21;0.00;;;0.00;;
6775;SDS011;3425;51.376;5.222;2023-04-19T12:08:05;1.23;;;0.90;;
6775;SDS011;3425;51.376;5.222;2023-04-19T12:10:37;0.20;;;0.20;;
6775;SDS011;3425;51.376;5.222;2023-04-19T12:13:16;0.00;;;0.00;;
6775;SDS011;3425;51.376;5.222;2023-04-19T12:15:44;0.45;;;0.30;;
6775;SDS011;3425;51.376;5.222;2023-04-19T12:18:11;0.10;;;0.10;;
6775;SDS011;3425;51.376;5.222;2023-04-19T12:20:42;0.25;;;0.25;;
6775;SDS011;3425;51.376;5.222;2023-04-19T12:23:11;1.27;;;0.32;;
6775;SDS011;3425;51.376;5.222;2023-04-19T12:25:41;0.00;;;0.00;;
6775;SDS011;3425;51.376;5.222;2023-04-19T12:28:09;0.10;;;0.10;;
6775;SDS011;3425;51.376;5.222;2023-04-19T12:30:36;0.17;;;0.17;;
6775;SDS011;3425;51.376;5.222;2023-04-19T12:33:03;0.55;;;0.50;;
6775;SDS011;3425;51.376;5.222;2023-04-19T12:35:31;1.02;;;0.65;;
6775;SDS011;3425;51.376;5.222;2023-04-19T12:37:59;0.63;;;0.50;;
6775;SDS011;3425;51.376;5.222;2023-04-19T12:40:27;0.00;;;0.00;;
6775;SDS011;3425;51.376;5.222;2023-04-19T12:42:55;0.25;;;0.20;;
6775;SDS011;3425;51.376;5.222;2023-04-19T12:45:23;0.03;;;0.03;;
6775;SDS011;3425;51.376;5.222;2023-04-19T12:47:50;0.70;;;0.60;;
6775;SDS011;3425;51.376;5.222;2023-04-19T12:50:17;0.00;;;0.00;;
6775;SDS011;3425;51.376;5.222;2023-04-19T12:52:44;5.15;;;0.88;;
6775;SDS011;3425;51.376;5.222;2023-04-19T12:55:12;0.10;;;0.10;;
6775;SDS011;3425;51.376;5.222;2023-04-19T12:57:39;1.05;;;0.57;;
6775;SDS011;3425;51.376;5.222;2023-04-19T13:00:07;0.88;;;0.88;;
6775;SDS011;3425;51.376;5.222;2023-04-19T13:02:35;0.10;;;0.10;;
6775;SDS011;3425;51.376;5.222;2023-04-19T13:05:03;0.38;;;0.32;;
6775;SDS011;3425;51.376;5.222;2023-04-19T13:07:31;0.30;;;0.30;;
6775;SDS011;3425;51.376;5.222;2023-04-19T13:09:58;0.00;;;0.00;;
6775;SDS011;3425;51.376;5.222;2023-04-19T13:12:26;0.20;;;0.20;;
6775;SDS011;3425;51.376;5.222;2023-04-19T13:14:53;0.10;;;0.10;;
6775;SDS011;3425;51.376;5.222;2023-04-19T13:17:21;0.13;;;0.13;;
6775;SDS011;3425;51.376;5.222;2023-04-19T13:19:48;0.68;;;0.68;;
6775;SDS011;3425;51.376;5.222;2023-04-19T13:22:16;3.10;;;0.30;;
6775;SDS011;3425;51.376;5.222;2023-04-19T13:24:43;0.38;;;0.38;;
6775;SDS011;3425;51.376;5.222;2023-04-19T13:27:10;0.05;;;0.05;;
6775;SDS011;3425;51.376;5.222;2023-04-19T13:29:37;0.95;;;0.70;;
6775;SDS011;3425;51.376;5.222;2023-04-19T13:32:05;0.30;;;0.30;;
6775;SDS011;3425;51.376;5.222;2023-04-19T13:34:32;1.00;;;0.55;;
6775;SDS011;3425;51.376;5.222;2023-04-19T13:37:00;0.00;;;0.00;;
6775;SDS011;3425;51.376;5.222;2023-04-19T13:39:27;0.10;;;0.05;;
6775;SDS011;3425;51.376;5.222;2023-04-19T13:41:54;0.20;;;0.10;;
6775;SDS011;3425;51.376;5.222;2023-04-19T13:44:21;0.45;;;0.45;;
6775;SDS011;3425;51.376;5.222;2023-04-19T13:46:50;0.10;;;0.10;;
6775;SDS011;3425;51.376;5.222;2023-04-19T13:49:17;0.70;;;0.20;;
6775;SDS011;3425;51.376;5.222;2023-04-19T13:51:44;0.40;;;0.40;;
6775;SDS011;3425;51.376;5.222;2023-04-19T13:54:16;2.17;;;1.25;;
6775;SDS011;3425;51.376;5.222;2023-04-19T13:56:45;0.00;;;0.00;;
6775;SDS011;3425;51.376;5.222;2023-04-19T13:59:15;0.00;;;0.00;;
6775;SDS011;3425;51.376;5.222;2023-04-19T14:01:42;1.75;;;0.88;;
6775;SDS011;3425;51.376;5.222;2023-04-19T14:04:09;0.00;;;0.00;;
6775;SDS011;3425;51.376;5.222;2023-04-19T14:06:36;0.20;;;0.10;;
6775;SDS011;3425;51.376;5.222;2023-04-19T14:09:04;0.10;;;0.10;;
6775;SDS011;3425;51.376;5.222;2023-04-19T14:11:31;0.10;;;0.10;;
6775;SDS011;3425;51.376;5.222;2023-04-19T14:13:59;0.38;;;0.32;;
6775;SDS011;3425;51.376;5.222;2023-04-19T14:16:26;0.15;;;0.15;;
6775;SDS011;3425;51.376;5.222;2023-04-19T14:18:53;0.10;;;0.10;;
6775;SDS011;3425;51.376;5.222;2023-04-19T14:21:21;0.20;;;0.20;;
6775;SDS011;3425;51.376;5.222;2023-04-19T14:23:48;0.00;;;0.00;;
6775;SDS011;3425;51.376;5.222;2023-04-19T14:26:16;3.45;;;0.82;;
6775;SDS011;3425;51.376;5.222;2023-04-19T14:28:43;0.10;;;0.10;;
6775;SDS011;3425;51.376;5.222;2023-04-19T14:31:10;0.00;;;0.00;;
6775;SDS011;3425;51.376;5.222;2023-04-19T14:33:37;0.25;;;0.25;;
6775;SDS011;3425;51.376;5.222;2023-04-19T14:36:05;0.90;;;0.52;;
6775;SDS011;3425;51.376;5.222;2023-04-19T14:38:32;0.20;;;0.20;;
6775;SDS011;3425;51.376;5.222;2023-04-19T14:40:59;0.20;;;0.20;;
6775;SDS011;3425;51.376;5.222;2023-04-19T14:43:26;0.00;;;0.00;;
6775;SDS011;3425;51.376;5.222;2023-04-19T14:45:54;0.85;;;0.28;;
6775;SDS011;3425;51.376;5.222;2023-04-19T14:48:21;0.75;;;0.75;;
6775;SDS011;3425;51.376;5.222;2023-04-19T14:50:48;0.10;;;0.10;;
6775;SDS011;3425;51.376;5.222;2023-04-19T14:53:16;0.40;;;0.35;;
6775;SDS011;3425;51.376;5.222;2023-04-19T14:55:43;0.70;;;0.63;;
6775;SDS011;3425;51.376;5.222;2023-04-19T14:58:10;1.85;;;0.30;;
6775;SDS011;3425;51.376;5.222;2023-04-19T15:00:37;1.95;;;0.90;;
6775;SDS011;3425;51.376;5.222;2023-04-19T15:03:04;0.88;;;0.22;;
6775;SDS011;3425;51.376;5.222;2023-04-19T15:05:33;0.28;;;0.22;;
6775;SDS011;3425;51.376;5.222;2023-04-19T15:08:01;0.25;;;0.25;;
6775;SDS011;3425;51.376;5.222;2023-04-19T15:10:28;0.25;;;0.20;;
6775;SDS011;3425;51.376;5.222;2023-04-19T15:12:56;0.40;;;0.38;;
6775;SDS011;3425;51.376;5.222;2023-04-19T15:15:23;0.30;;;0.30;;
6775;SDS011;3425;51.376;5.222;2023-04-19T15:17:50;0.17;;;0.17;;
6775;SDS011;3425;51.376;5.222;2023-04-19T15:20:17;0.30;;;0.28;;
6775;SDS011;3425;51.376;5.222;2023-04-19T15:22:45;0.40;;;0.40;;
6775;SDS011;3425;51.376;5.222;2023-04-19T15:25:12;0.20;;;0.20;;
6775;SDS011;3425;51.376;5.222;2023-04-19T15:27:39;0.20;;;0.20;;
6775;SDS011;3425;51.376;5.222;2023-04-19T15:30:07;0.25;;;0.25;;
6775;SDS011;3425;51.376;5.222;2023-04-19T15:32:34;0.20;;;0.20;;
6775;SDS011;3425;51.376;5.222;2023-04-19T15:35:04;0.10;;;0.10;;
6775;SDS011;3425;51.376;5.222;2023-04-19T15:37:31;2.55;;;0.13;;
6775;SDS011;3425;51.376;5.222;2023-04-19T15:39:58;0.20;;;0.20;;